createdAt,value
2019-01-24T00:01:30.356Z,93084.00
2019-01-24T00:04:00.075Z,93084.27
2019-01-24T00:06:29.748Z,93082.44
2019-01-24T00:08:59.287Z,93075.42
2019-01-24T00:11:28.999Z,93076.23
2019-01-24T00:13:58.675Z,93075.20
2019-01-24T00:16:28.239Z,93078.56
2019-01-24T00:18:58.103Z,93071.83
2019-01-24T00:21:27.601Z,93068.20
2019-01-24T00:23:57.223Z,93061.20
2019-01-24T00:26:26.876Z,93071.29
2019-01-24T00:28:56.868Z,93056.26
2019-01-24T00:31:26.446Z,93036.06
2019-01-24T00:33:56.191Z,93021.03
2019-01-24T00:36:25.812Z,93023.62
2019-01-24T00:38:55.269Z,93018.97
2019-01-24T00:41:25.191Z,93029.34
2019-01-24T00:43:54.711Z,93039.97
2019-01-24T00:46:25.024Z,93048.77
2019-01-24T00:48:54.622Z,93042.29
2019-01-24T00:51:24.241Z,93025.17
2019-01-24T00:53:54.044Z,93019.72
2019-01-24T00:56:23.774Z,93025.95
2019-01-24T00:58:53.419Z,93025.45
2019-01-24T01:01:22.980Z,93025.69
2019-01-24T01:03:52.491Z,93040.45
2019-01-24T01:06:22.268Z,93043.58
2019-01-24T01:08:51.760Z,93028.80
2019-01-24T01:11:21.305Z,93021.56
2019-01-24T01:13:51.127Z,93021.03
2019-01-24T01:16:20.884Z,93015.33
2019-01-24T01:18:50.338Z,93018.45
2019-01-24T01:21:20.251Z,93014.28
2019-01-24T01:23:49.976Z,93010.69
2019-01-24T01:26:19.619Z,93007.83
2019-01-24T01:28:49.422Z,93005.50
2019-01-24T01:31:19.121Z,92991.49
2019-01-24T01:33:48.593Z,92993.55
2019-01-24T01:36:18.032Z,92986.31
2019-01-24T01:38:47.719Z,92990.96
2019-01-24T01:41:17.323Z,92987.33
2019-01-24T01:43:46.955Z,92983.44
2019-01-24T01:46:16.571Z,92982.64
2019-01-24T01:48:46.154Z,92989.13
2019-01-24T01:51:15.800Z,92994.83
2019-01-24T01:53:45.529Z,93002.88
2019-01-24T01:56:15.104Z,92994.55
2019-01-24T01:58:44.820Z,92983.66
2019-01-24T02:01:14.392Z,92983.39
2019-01-24T02:03:44.200Z,92985.48
2019-01-24T02:06:13.874Z,92985.99
2019-01-24T02:08:43.559Z,92994.53
2019-01-24T02:11:13.316Z,92990.91
2019-01-24T02:13:42.899Z,92991.67
2019-01-24T02:16:12.551Z,92988.56
2019-01-24T02:18:42.209Z,92988.08
2019-01-24T02:21:11.891Z,92995.05
2019-01-24T02:23:41.452Z,92990.38
2019-01-24T02:26:11.048Z,92985.43
2019-01-24T02:28:40.607Z,92986.49
2019-01-24T02:31:10.159Z,92991.14
2019-01-24T02:33:39.869Z,92994.76
2019-01-24T02:36:09.537Z,92984.66
2019-01-24T02:38:39.181Z,92991.92
2019-01-24T02:41:08.523Z,92989.56
2019-01-24T02:43:38.149Z,92989.33
2019-01-24T02:46:07.941Z,92990.89
2019-01-24T02:48:37.559Z,92997.64
2019-01-24T02:51:07.184Z,92998.67
2019-01-24T02:53:36.852Z,92996.63
2019-01-24T02:56:06.499Z,92990.38
2019-01-24T02:58:36.994Z,92985.95
2019-01-24T03:01:06.661Z,92991.87
2019-01-24T03:03:36.302Z,92991.63
2019-01-24T03:06:05.977Z,92988.78
2019-01-24T03:08:35.553Z,92978.17
2019-01-24T03:11:05.154Z,92971.71
2019-01-24T03:13:34.855Z,92973.25
2019-01-24T03:16:04.699Z,92977.41
2019-01-24T03:18:34.505Z,92956.91
2019-01-24T03:21:04.196Z,92957.45
2019-01-24T03:23:33.831Z,92956.94
2019-01-24T03:26:04.099Z,92949.91
2019-01-24T03:28:33.789Z,92955.91
2019-01-24T03:31:03.390Z,92951.48
2019-01-24T03:33:32.864Z,92960.02
2019-01-24T03:36:02.717Z,92961.31
2019-01-24T03:38:32.176Z,92947.08
2019-01-24T03:41:01.911Z,92946.78
2019-01-24T03:43:31.542Z,92944.46
2019-01-24T03:46:01.130Z,92944.19
2019-01-24T03:48:30.726Z,92941.59
2019-01-24T03:51:00.541Z,92940.02
2019-01-24T03:53:30.271Z,92922.66
2019-01-24T03:55:59.962Z,92921.60
2019-01-24T03:58:29.625Z,92920.81
2019-01-24T04:00:59.274Z,92927.03
2019-01-24T04:03:28.930Z,92924.95
2019-01-24T04:05:58.648Z,92917.67
2019-01-24T04:08:28.848Z,92923.89
2019-01-24T04:10:58.428Z,92928.80
2019-01-24T04:13:28.085Z,92935.50
2019-01-24T04:15:57.747Z,92928.53
2019-01-24T04:18:27.519Z,92930.03
2019-01-24T04:20:57.294Z,92933.93
2019-01-24T04:23:26.855Z,92935.77
2019-01-24T04:25:56.383Z,92931.64
2019-01-24T04:28:26.024Z,92932.91
2019-01-24T04:30:55.758Z,92929.52
2019-01-24T04:33:25.324Z,92937.55
2019-01-24T04:35:54.955Z,92933.34
2019-01-24T04:38:24.501Z,92939.08
2019-01-24T04:40:54.155Z,92939.80
2019-01-24T04:43:23.976Z,92941.88
2019-01-24T04:45:53.578Z,92942.70
2019-01-24T04:48:23.195Z,92938.56
2019-01-24T04:50:52.868Z,92941.71
2019-01-24T04:53:22.587Z,92944.06
2019-01-24T04:55:51.971Z,92952.91
2019-01-24T04:58:21.492Z,92955.74
2019-01-24T05:00:51.020Z,92959.36
2019-01-24T05:03:20.767Z,92963.55
2019-01-24T05:05:50.210Z,92968.23
2019-01-24T05:08:19.733Z,92978.09
2019-01-24T05:10:49.292Z,92977.83
2019-01-24T05:13:18.867Z,92975.23
2019-01-24T05:15:48.484Z,92974.98
2019-01-24T05:18:18.308Z,92978.85
2019-01-24T05:20:47.732Z,92975.47
2019-01-24T05:23:17.159Z,92974.45
2019-01-24T05:25:46.709Z,92977.55
2019-01-24T05:28:16.152Z,92983.25
2019-01-24T05:30:45.802Z,92984.02
2019-01-24T05:33:15.545Z,92985.84
2019-01-24T05:35:45.230Z,92988.95
2019-01-24T05:38:14.814Z,92984.55
2019-01-24T05:40:44.406Z,92984.52
2019-01-24T05:43:14.561Z,92983.26
2019-01-24T05:45:44.182Z,92986.88
2019-01-24T05:48:13.811Z,92988.95
2019-01-24T05:50:43.369Z,92987.39
2019-01-24T05:53:12.885Z,92988.41
2019-01-24T05:55:42.512Z,92992.03
2019-01-24T05:58:12.117Z,92981.66
2019-01-24T06:00:44.149Z,92981.11
2019-01-24T06:03:13.941Z,92981.90
2019-01-24T06:05:43.484Z,92984.49
2019-01-24T06:08:13.130Z,92992.01
2019-01-24T06:10:42.687Z,92992.01
2019-01-24T06:13:12.348Z,92994.09
2019-01-24T06:15:42.022Z,92986.03
2019-01-24T06:18:11.513Z,92987.05
2019-01-24T06:20:41.115Z,92989.69
2019-01-24T06:23:11.206Z,92980.56
2019-01-24T06:25:40.136Z,92997.98
2019-01-24T06:28:10.351Z,92994.39
2019-01-24T06:30:39.911Z,93002.69
2019-01-24T06:33:09.580Z,93006.30
2019-01-24T06:35:39.087Z,93013.04
2019-01-24T06:38:09.047Z,93020.83
2019-01-24T06:40:38.444Z,93010.44
2019-01-24T06:43:07.930Z,93001.12
2019-01-24T06:45:37.643Z,92997.50
2019-01-24T06:48:07.354Z,93010.44
2019-01-24T06:50:37.093Z,93014.09
2019-01-24T06:53:06.652Z,93016.69
2019-01-24T06:55:36.416Z,93022.88
2019-01-24T06:58:06.107Z,93027.58
2019-01-24T07:00:36.024Z,93027.05
2019-01-24T07:03:05.720Z,93038.20
2019-01-24T07:05:35.415Z,93035.58
2019-01-24T07:08:05.179Z,93028.04
2019-01-24T07:10:35.155Z,92979.91
2019-01-24T07:13:05.031Z,93041.44
2019-01-24T07:15:34.921Z,93026.09
2019-01-24T07:18:05.147Z,93026.33
2019-01-24T07:20:34.849Z,93026.84
2019-01-24T07:23:04.564Z,93033.58
2019-01-24T07:25:34.857Z,93040.81
2019-01-24T07:28:04.481Z,93032.23
2019-01-24T07:30:34.123Z,93029.13
2019-01-24T07:33:03.504Z,93028.65
2019-01-24T07:35:33.917Z,93036.13
2019-01-24T07:38:03.483Z,93033.53
2019-01-24T07:40:33.347Z,93034.31
2019-01-24T07:43:03.057Z,93035.82
2019-01-24T07:45:35.151Z,93038.17
2019-01-24T07:48:05.142Z,93037.91
2019-01-24T07:50:34.944Z,93037.39
2019-01-24T07:53:05.273Z,93041.25
2019-01-24T07:55:35.121Z,93043.33
2019-01-24T07:58:05.975Z,93050.34
2019-01-24T08:00:35.663Z,93055.17
2019-01-24T08:03:05.801Z,93058.55
2019-01-24T08:05:35.624Z,93066.80
2019-01-24T08:08:05.439Z,93055.67
2019-01-24T08:10:35.052Z,93056.98
2019-01-24T08:13:05.413Z,93063.28
2019-01-24T08:15:35.106Z,93067.41
2019-01-24T08:18:04.832Z,93064.55
2019-01-24T08:20:34.588Z,93061.47
2019-01-24T08:23:04.344Z,93065.57
2019-01-24T08:25:34.500Z,93065.83
2019-01-24T08:28:04.183Z,93069.97
2019-01-24T08:30:34.323Z,93076.73
2019-01-24T08:33:04.102Z,93079.05
2019-01-24T08:35:33.687Z,93080.59
2019-01-24T08:38:03.413Z,93082.72
2019-01-24T08:40:33.121Z,93085.00
2019-01-24T08:43:02.825Z,93087.56
2019-01-24T08:45:32.567Z,93084.72
2019-01-24T08:48:02.243Z,93094.84
2019-01-24T08:50:32.831Z,93100.82
2019-01-24T08:53:02.588Z,93105.98
2019-01-24T08:55:34.510Z,93105.97
2019-01-24T08:58:04.219Z,93115.83
2019-01-24T09:00:33.635Z,93116.34
2019-01-24T09:03:03.302Z,93116.38
2019-01-24T09:05:33.140Z,93122.33
2019-01-24T09:08:03.011Z,93125.44
2019-01-24T09:10:35.745Z,93128.31
2019-01-24T09:13:06.208Z,93128.31
2019-01-24T09:15:36.004Z,93133.08
2019-01-24T09:18:06.289Z,93102.45
2019-01-24T09:20:36.083Z,93118.66
2019-01-24T09:23:06.458Z,93122.00
2019-01-24T09:25:36.479Z,93123.66
2019-01-24T09:28:06.835Z,93123.94
2019-01-24T09:30:36.721Z,93126.95
2019-01-24T09:33:06.685Z,93127.17
2019-01-24T09:35:36.365Z,93121.62
2019-01-24T09:38:06.899Z,93117.11
2019-01-24T09:40:36.637Z,93113.77
2019-01-24T09:43:06.460Z,93122.53
2019-01-24T09:45:36.139Z,93127.16
2019-01-24T09:48:06.685Z,93121.06
2019-01-24T09:50:36.475Z,93117.50
2019-01-24T09:53:06.095Z,93119.09
2019-01-24T09:55:35.594Z,93115.81
2019-01-24T09:58:05.423Z,93107.62
2019-01-24T10:00:36.618Z,93098.89
2019-01-24T10:03:07.177Z,93093.75
2019-01-24T10:05:36.715Z,93100.31
2019-01-24T10:08:06.896Z,93100.10
2019-01-24T10:10:36.890Z,93093.50
2019-01-24T10:13:06.936Z,93091.78
2019-01-24T10:15:36.508Z,93078.23
2019-01-24T10:18:06.313Z,93099.34
2019-01-24T10:20:35.902Z,93086.36
2019-01-24T10:23:05.654Z,93079.29
2019-01-24T10:25:38.129Z,93085.80
2019-01-24T10:28:08.463Z,93088.14
2019-01-24T10:30:42.632Z,93083.99
2019-01-24T10:33:07.980Z,93079.19
2019-01-24T10:35:37.531Z,93079.31
2019-01-24T10:38:07.414Z,93075.72
2019-01-24T10:40:37.248Z,93077.84
2019-01-24T10:43:07.191Z,93074.74
2019-01-24T10:45:37.732Z,93071.64
2019-01-24T10:48:07.674Z,93071.03
2019-01-24T10:50:37.527Z,93066.75
2019-01-24T10:53:08.306Z,93068.36
2019-01-24T10:55:38.381Z,93070.36
2019-01-24T10:58:08.950Z,93066.48
2019-01-24T11:00:41.477Z,93070.55
2019-01-24T11:03:14.744Z,93063.47
2019-01-24T11:05:44.280Z,93063.13
2019-01-24T11:08:13.998Z,93066.45
2019-01-24T11:10:43.542Z,93068.00
2019-01-24T11:13:13.333Z,93072.47
2019-01-24T11:15:43.131Z,93073.94
2019-01-24T11:18:13.084Z,93082.47
2019-01-24T11:20:42.828Z,93082.20
2019-01-24T11:23:12.630Z,93084.27
2019-01-24T11:25:42.461Z,93083.97
2019-01-24T11:28:13.420Z,93087.34
2019-01-24T11:30:43.265Z,93084.73
2019-01-24T11:33:13.079Z,93088.36
2019-01-24T11:35:42.728Z,93090.31
2019-01-24T11:38:12.415Z,93093.08
2019-01-24T11:40:42.017Z,93091.05
2019-01-24T11:43:11.656Z,93108.71
2019-01-24T11:45:43.312Z,93107.12
2019-01-24T11:48:12.814Z,93116.33
2019-01-24T11:50:42.593Z,93118.19
2019-01-24T11:53:12.527Z,93111.43
2019-01-24T11:55:42.223Z,93113.74
2019-01-24T11:58:11.813Z,93117.80
2019-01-24T12:00:48.773Z,93121.47
2019-01-24T12:03:18.392Z,93124.23
2019-01-24T12:05:48.012Z,93129.76
2019-01-24T12:08:17.852Z,93129.22
2019-01-24T12:10:47.377Z,93133.17
2019-01-24T12:13:17.347Z,93136.33
2019-01-24T12:15:47.000Z,93138.46
2019-01-24T12:18:16.666Z,93139.79
2019-01-24T12:20:46.198Z,93133.27
2019-01-24T12:23:15.819Z,93137.16
2019-01-24T12:25:45.453Z,93133.98
2019-01-24T12:28:15.510Z,93141.57
2019-01-24T12:30:45.138Z,93142.25
2019-01-24T12:33:14.829Z,93143.81
2019-01-24T12:35:44.479Z,93143.11
2019-01-24T12:38:14.229Z,93143.39
2019-01-24T12:40:44.117Z,93140.19
2019-01-24T12:43:14.028Z,93092.30
2019-01-24T12:45:43.511Z,93149.81
2019-01-24T12:48:13.123Z,93145.20
2019-01-24T12:50:43.020Z,93148.39
2019-01-24T12:53:12.657Z,93160.27
2019-01-24T12:55:42.087Z,93166.29
2019-01-24T12:58:11.834Z,93173.72
2019-01-24T13:00:41.703Z,93173.11
2019-01-24T13:03:11.256Z,93180.37
2019-01-24T13:05:40.768Z,93177.84
2019-01-24T13:08:10.512Z,93187.63
2019-01-24T13:10:40.081Z,93196.52
2019-01-24T13:13:09.640Z,93199.54
2019-01-24T13:15:39.435Z,93195.19
2019-01-24T13:18:09.124Z,93201.95
2019-01-24T13:20:38.718Z,93204.29
2019-01-24T13:23:08.726Z,93204.82
2019-01-24T13:25:38.408Z,93212.59
2019-01-24T13:28:08.457Z,93219.87
2019-01-24T13:30:38.108Z,93230.75
2019-01-24T13:33:07.955Z,93240.87
2019-01-24T13:35:37.851Z,93241.88
2019-01-24T13:38:07.897Z,93244.94
2019-01-24T13:40:37.413Z,93248.83
2019-01-24T13:43:07.653Z,93246.98
2019-01-24T13:45:39.133Z,93256.05
2019-01-24T13:48:08.864Z,93262.77
2019-01-24T13:50:38.424Z,93263.00
2019-01-24T13:53:08.014Z,93271.83
2019-01-24T13:55:39.319Z,93267.30
2019-01-24T13:58:07.799Z,93271.37
2019-01-24T14:00:39.847Z,93278.61
2019-01-24T14:03:13.341Z,93282.42
2019-01-24T14:05:43.178Z,93287.83
2019-01-24T14:08:12.899Z,93284.48
2019-01-24T14:10:42.454Z,93280.59
2019-01-24T14:13:11.909Z,93293.01
2019-01-24T14:15:41.375Z,93298.41
2019-01-24T14:18:11.158Z,93305.11
2019-01-24T14:20:40.893Z,93302.46
2019-01-24T14:23:10.567Z,93306.12
2019-01-24T14:25:40.339Z,93304.57
2019-01-24T14:28:10.068Z,93302.20
2019-01-24T14:30:39.723Z,93323.66
2019-01-24T14:33:09.421Z,93324.17
2019-01-24T14:35:39.198Z,93312.50
2019-01-24T14:38:09.046Z,93323.94
2019-01-24T14:40:38.614Z,93315.23
2019-01-24T14:43:08.329Z,93321.20
2019-01-24T14:45:38.112Z,93326.30
2019-01-24T14:48:08.516Z,93320.51
2019-01-24T14:50:38.544Z,93326.59
2019-01-24T14:53:08.185Z,93331.51
2019-01-24T14:55:37.890Z,93332.39
2019-01-24T14:58:07.500Z,93327.80
2019-01-24T15:00:40.868Z,93340.09
2019-01-24T15:03:10.561Z,93337.52
2019-01-24T15:05:40.206Z,93337.42
2019-01-24T15:08:10.174Z,93342.51
2019-01-24T15:10:39.976Z,93336.35
2019-01-24T15:13:10.491Z,93347.47
2019-01-24T15:15:40.237Z,93355.58
2019-01-24T15:18:10.028Z,93357.23
2019-01-24T15:20:40.227Z,93363.09
2019-01-24T15:23:09.997Z,93357.23
2019-01-24T15:25:39.709Z,93364.03
2019-01-24T15:28:09.368Z,93367.22
2019-01-24T15:30:39.967Z,93374.10
2019-01-24T15:33:09.668Z,93389.45
2019-01-24T15:35:39.456Z,93387.48
2019-01-24T15:38:09.202Z,93399.09
2019-01-24T15:40:38.692Z,93401.94
2019-01-24T15:43:08.531Z,93404.22
2019-01-24T15:45:38.582Z,93408.54
2019-01-24T15:48:09.430Z,93412.52
2019-01-24T15:50:39.132Z,93414.94
2019-01-24T15:53:09.570Z,93426.81
2019-01-24T15:55:40.033Z,93428.55
2019-01-24T15:58:11.034Z,93431.37
2019-01-24T16:00:40.703Z,93440.76
2019-01-24T16:03:10.395Z,93438.98
2019-01-24T16:05:39.864Z,93439.27
2019-01-24T16:08:09.543Z,93443.71
2019-01-24T16:28:01.027Z,93478.05
2019-01-24T16:30:31.975Z,93488.42
2019-01-24T16:33:01.855Z,93485.36
2019-01-24T16:52:53.523Z,93529.28
2019-01-24T16:55:23.192Z,93529.31
2019-01-24T16:57:53.111Z,93533.16
2019-01-24T17:00:26.386Z,93534.98
2019-01-24T17:02:55.901Z,93531.28
2019-01-24T17:05:25.579Z,93536.00
2019-01-24T17:07:55.463Z,93540.61
2019-01-24T17:10:25.382Z,93544.24
2019-01-24T17:12:54.946Z,93549.30
2019-01-24T17:15:24.602Z,93544.41
2019-01-24T17:17:54.298Z,93559.34
2019-01-24T17:37:45.899Z,93570.69
2019-01-24T17:40:18.725Z,93575.21
2019-01-24T17:42:48.684Z,93577.33
2019-01-24T18:02:41.649Z,93609.34
2019-01-24T18:22:33.871Z,93635.95
2019-01-24T18:25:03.444Z,93636.84
2019-01-24T18:44:55.369Z,93659.62
2019-01-24T18:47:25.016Z,93667.80
2019-01-24T18:49:54.697Z,93664.66
2019-01-24T19:09:46.496Z,93669.94
2019-01-24T19:12:16.075Z,93668.19
2019-01-24T19:14:46.919Z,93661.56
2019-01-24T19:17:15.382Z,93668.91
2019-01-24T19:19:44.920Z,93677.12
2019-01-24T19:22:14.336Z,93671.95
2019-01-24T19:24:44.072Z,93670.53
2019-01-24T19:27:13.659Z,93676.72
2019-01-24T19:47:05.168Z,93692.59
2019-01-24T19:49:34.672Z,93685.30
2019-01-24T19:52:04.405Z,93686.31
2019-01-24T20:11:55.987Z,93697.89
2019-01-24T20:14:25.819Z,93698.98
2019-01-24T20:34:17.847Z,93741.91
2019-01-24T20:36:47.555Z,93740.27
2019-01-24T20:39:17.267Z,93743.69
2019-01-24T20:41:47.015Z,93746.11
2019-01-24T20:44:16.687Z,93748.23
2019-01-24T20:46:46.310Z,93745.78
2019-01-24T20:49:15.961Z,93751.37
2019-01-24T20:51:45.651Z,93756.20
2019-01-24T20:54:15.235Z,93761.25
2019-01-24T20:56:45.133Z,93768.88
2019-01-24T20:59:14.860Z,93769.15
2019-01-24T21:01:44.607Z,93775.03
2019-01-24T21:04:15.114Z,93778.58
2019-01-24T21:06:44.107Z,93790.29
2019-01-24T21:09:14.882Z,93800.45
2019-01-24T21:29:06.336Z,93811.16
2019-01-24T21:31:37.345Z,93819.69
2019-01-24T21:34:05.677Z,93823.33
2019-01-24T21:36:35.156Z,93826.14
2019-01-24T21:39:05.891Z,93820.78
2019-01-24T21:41:35.596Z,93823.55
2019-01-24T21:44:05.183Z,93828.30
2019-01-24T21:46:34.770Z,93834.23
2019-01-24T21:49:04.478Z,93834.54
2019-01-24T21:51:34.072Z,93845.95
2019-01-24T21:54:03.625Z,93850.23
2019-01-24T21:56:33.325Z,93858.13
2019-01-24T21:59:03.023Z,93853.38
2019-01-24T22:01:32.724Z,93855.00
2019-01-24T22:04:02.218Z,93869.08
2019-01-24T22:06:31.838Z,93864.30
2019-01-24T22:09:01.428Z,93859.00
2019-01-24T22:11:31.234Z,93851.06
2019-01-24T22:14:01.111Z,93839.91
2019-01-24T22:33:52.712Z,93835.16
2019-01-24T22:36:22.402Z,93828.57
2019-01-24T22:38:51.964Z,93822.27
2019-01-24T22:41:21.664Z,93829.89
2019-01-24T22:43:51.398Z,93827.69
2019-01-24T22:46:20.947Z,93810.02
2019-01-24T22:48:50.697Z,93810.99
2019-01-24T22:51:20.206Z,93819.56
2019-01-24T22:53:49.664Z,93813.52
2019-01-24T22:56:19.578Z,93819.69
2019-01-24T22:58:49.154Z,93812.04
2019-01-24T23:01:46.443Z,93815.59
2019-01-24T23:04:18.201Z,93819.16
2019-01-24T23:06:48.048Z,93823.23
2019-01-24T23:09:17.640Z,93840.63
2019-01-24T23:11:47.135Z,93825.00
2019-01-24T23:14:17.044Z,93818.72
2019-01-24T23:16:46.784Z,93833.80
2019-01-24T23:19:16.423Z,93834.81
2019-01-24T23:21:45.900Z,93846.92
2019-01-24T23:24:15.390Z,93850.95
2019-01-24T23:26:45.201Z,93840.18
2019-01-24T23:29:15.140Z,93858.84
2019-01-24T23:31:45.292Z,93873.94
2019-01-24T23:34:14.929Z,93858.13
2019-01-24T23:36:44.849Z,93853.80
2019-01-24T23:39:14.391Z,93865.25
2019-01-24T23:41:44.189Z,93856.38
2019-01-24T23:44:14.112Z,93856.85
2019-01-24T23:46:43.700Z,93870.66
